Latest Weather Observations for Laverton

IDV60801

Issued at 11:31 pm EDT Sunday 7 February 2016 (issued every 30 minutes, with the page automatically refreshed every 10 minutes)

About weather observations | Map of weather stations | Latest weather observations for VIC | Other Formats
Station Details ID: 087031 Name: LAVERTON RAAF Lat: -37.86 Lon: 144.76 Height: 20.1 m
Data from the previous 72 hours. | See also: Recent months at Laverton
Date/Time
EDT
Temp
°C
App
Temp
°C
Dew
Point
Rel
Hum
%
Delta-T
°C
Wind Press
QNH
hPa
Press
MSL
hPa
Rain
since 9 am
mm
Dir
 
Spd
km/h
Gust
km/h
Spd
kts
Gust
kts
07/11:30pm 18.8 19.2 16.4 86 1.4 SW 9 13 5 7 1020.1 1020.0 0.0
07/11:00pm 19.0 19.1 16.4 85 1.6 SW 11 13 6 7 1020.0 1019.9 0.0
07/10:30pm 19.3 19.0 16.5 84 1.7 SW 13 15 7 8 1019.9 1019.8 0.0
07/10:00pm 19.5 18.8 16.5 83 1.8 SSW 15 19 8 10 1019.6 1019.5 0.0
07/09:30pm 19.9 18.9 16.5 81 2.0 SSW 17 24 9 13 1019.3 1019.2 0.0
07/09:00pm 20.6 19.4 16.2 76 2.6 SSW 17 26 9 14 1018.9 1018.8 0.0
07/08:30pm 21.0 19.3 16.2 74 2.9 SSW 20 30 11 16 1018.5 1018.4 0.0
07/08:00pm 21.9 20.4 16.2 70 3.4 S 19 26 10 14 1017.9 1017.8 0.0
07/07:30pm 22.7 20.5 14.8 61 4.7 S 20 30 11 16 1017.6 1017.5 0.0
07/07:00pm 23.9 19.6 12.2 48 6.7 S 26 39 14 21 1017.0 1016.9 0.0
07/06:30pm 24.8 19.4 11.0 42 7.7 S 30 43 16 23 1016.5 1016.4 0.0
07/06:00pm 24.9 20.0 13.8 50 6.5 S 32 43 17 23 1016.3 1016.2 0.0
07/05:30pm 25.0 20.4 13.5 48 6.7 S 30 43 16 23 1016.1 1016.0 0.0
07/05:00pm 25.6 22.4 16.2 56 5.8 S 28 39 15 21 1015.9 1015.8 0.0
07/04:30pm 26.4 22.8 13.2 44 7.7 S 24 35 13 19 1015.9 1015.8 0.0
07/04:00pm 26.0 23.7 15.7 53 6.3 SSE 22 30 12 16 1015.7 1015.6 0.0
07/03:30pm 26.3 23.5 16.3 54 6.2 SSE 26 32 14 17 1015.8 1015.7 0.0
07/03:00pm 27.0 25.3 16.3 52 6.6 SSE 20 28 11 15 1015.9 1015.8 0.0
07/02:30pm 26.8 25.1 17.3 56 6.0 SSE 22 30 12 16 1016.1 1016.0 0.0
07/02:00pm 27.2 26.1 17.7 56 6.0 S 20 26 11 14 1016.3 1016.2 0.0
07/01:30pm 26.9 26.0 18.2 59 5.5 S 20 26 11 14 1016.4 1016.3 0.0
07/01:00pm 27.3 27.6 17.8 56 6.0 SSE 13 19 7 10 1016.4 1016.3 0.0
07/12:30pm 27.1 27.5 18.1 58 5.7 S 13 19 7 10 1016.7 1016.6 0.0
07/12:00pm 25.7 25.7 18.1 63 4.8 S 15 22 8 12 1017.0 1016.9 0.0
07/11:30am 25.2 25.7 18.4 66 4.3 S 13 20 7 11 1017.1 1017.0 0.0
07/11:00am 25.1 25.3 18.5 67 4.2 SSW 15 20 8 11 1017.2 1017.1 0.0
07/10:30am 24.1 23.7 18.1 69 3.8 SSW 17 22 9 12 1017.4 1017.3 0.0
07/10:00am 23.9 23.8 16.9 65 4.3 SSW 13 20 7 11 1017.3 1017.2 0.0
07/09:30am 23.4 23.2 15.7 62 4.6 SW 11 15 6 8 1017.0 1016.9 0.0
07/09:00am 23.1 23.7 15.7 63 4.5 SSE 7 11 4 6 1016.9 1016.8 0.0
07/08:30am 21.5 22.0 15.1 67 3.8 WSW 6 7 3 4 1016.4 1016.3 0.0
07/08:00am 19.2 20.9 15.1 77 2.4 CALM 0 0 0 0 1016.0 1015.9 0.0
07/07:30am 18.3 19.8 14.6 79 2.1 CALM 0 0 0 0 1015.7 1015.6 0.0
07/07:00am 17.4 17.5 13.9 80 2.0 WSW 6 7 3 4 1015.5 1015.4 0.0
07/06:30am 17.1 17.0 14.0 82 1.8 N 7 7 4 4 1015.2 1015.1 0.0
07/06:00am 17.1 17.1 14.2 83 1.7 N 7 9 4 5 1014.7 1014.6 0.0
07/05:30am 17.1 17.3 14.6 85 1.4 NW 7 9 4 5 1014.8 1014.7 0.0
07/05:00am 17.4 17.3 14.9 85 1.4 NNW 9 11 5 6 1014.6 1014.5 0.0
07/04:30am 17.5 17.5 15.1 86 1.4 NW 9 9 5 5 1014.6 1014.5 0.0
07/04:00am 18.1 18.5 15.4 84 1.6 NW 7 11 4 6 1014.6 1014.5 0.0
07/03:30am 18.6 18.8 15.8 84 1.7 NW 9 9 5 5 1014.6 1014.5 0.0
07/03:00am 18.7 19.0 15.9 84 1.7 WNW 9 11 5 6 1014.6 1014.5 0.0
07/02:30am 19.1 19.4 16.1 83 1.8 WNW 9 13 5 7 1014.5 1014.4 0.0
07/02:00am 19.3 19.2 16.0 81 2.0 NW 11 13 6 7 1014.7 1014.6 0.0
07/01:30am 19.9 20.4 16.5 81 2.0 NW 9 13 5 7 1014.8 1014.7 0.0
07/01:00am 20.1 20.6 16.5 80 2.2 WNW 9 13 5 7 1015.0 1014.9 0.0
07/12:30am 20.3 20.4 16.5 79 2.3 NW 11 13 6 7 1015.1 1015.0 0.0
07/12:00am 22.3 24.8 17.2 73 3.1 CALM 0 4 0 2 1014.9 1014.8 0.0
 
Date/Time
EDT
Temp
°C
App
Temp
°C
Dew
Point
Rel
Hum
%
Delta-T
°C
Wind Press
QNH
hPa
Press
MSL
hPa
Rain
since 9 am
mm
Dir
 
Spd
km/h
Gust
km/h
Spd
kts
Gust
kts
06/11:30pm 23.3 24.7 17.3 69 3.7 SSE 6 7 3 4 1014.9 1014.8 0.0
06/11:00pm 23.7 24.8 17.9 70 3.6 SE 9 11 5 6 1014.8 1014.7 0.0
06/10:30pm 23.9 25.2 18.5 72 3.4 SSW 9 11 5 6 1014.6 1014.5 0.0
06/10:00pm 25.2 26.0 18.2 65 4.4 S 11 17 6 9 1014.5 1014.4 0.0
06/09:30pm 26.2 25.9 16.4 54 6.0 SE 13 19 7 10 1014.0 1013.9 0.0
06/09:00pm 26.4 26.0 16.3 53 6.2 ESE 13 17 7 9 1013.5 1013.4 0.0
06/08:30pm 27.0 26.3 15.4 49 7.1 ESE 13 17 7 9 1013.2 1013.1 0.0
06/08:00pm 28.4 26.3 13.5 40 8.9 SE 17 26 9 14 1013.0 1012.9 0.0
06/07:30pm 29.5 27.0 12.4 35 10.0 ESE 17 24 9 13 1012.8 1012.7 0.0
06/07:00pm 30.3 27.2 10.3 29 11.4 ESE 17 22 9 12 1012.7 1012.6 0.0
06/06:30pm 30.3 27.1 11.3 31 11.0 ESE 19 28 10 15 1012.7 1012.6 0.0
06/06:00pm 30.7 27.8 11.1 30 11.3 ESE 17 24 9 13 1012.8 1012.7 0.0
06/05:30pm 30.3 25.9 10.3 29 11.4 ESE 24 32 13 17 1012.9 1012.8 0.0
06/05:00pm 30.5 25.8 9.4 27 11.8 ESE 24 33 13 18 1013.1 1013.0 0.0
06/04:30pm 30.5 25.8 9.4 27 11.8 ESE 24 33 13 18 1013.5 1013.4 0.0
06/04:00pm 31.0 27.8 11.4 30 11.4 ESE 19 24 10 13 1013.9 1013.8 0.0
06/03:30pm 30.9 27.7 11.8 31 11.2 ESE 20 28 11 15 1014.2 1014.1 0.0
06/03:00pm 30.6 26.8 11.1 30 11.3 ESE 22 30 12 16 1014.4 1014.3 0.0
06/02:30pm 30.6 27.6 12.5 33 10.7 E 20 26 11 14 1014.6 1014.5 0.0
06/02:00pm 29.8 27.3 13.5 36 9.7 E 19 24 10 13 1015.0 1014.9 0.0
06/01:30pm 29.8 27.7 13.5 36 9.7 E 17 20 9 11 1015.4 1015.3 0.0
06/01:00pm 29.1 27.8 13.7 38 9.2 E 13 19 7 10 1015.7 1015.6 0.0
06/12:30pm 28.9 28.2 14.3 40 8.8 SE 11 17 6 9 1016.1 1016.0 0.0
06/12:00pm 28.2 27.7 13.7 41 8.6 S 9 17 5 9 1016.5 1016.4 0.0
06/11:30am 27.6 26.5 12.0 38 9.0 WNW 9 15 5 8 1016.8 1016.7 0.0
06/11:00am 26.7 26.4 12.7 42 8.1 SSW 6 13 3 7 1016.9 1016.8 0.0
06/10:30am 25.5 24.7 13.0 46 7.3 NNW 9 13 5 7 1017.1 1017.0 0.0
06/10:00am 24.0 24.0 13.5 52 6.1 NNE 6 11 3 6 1017.3 1017.2 0.0
06/09:30am 22.4 22.2 13.5 57 5.2 NE 7 11 4 6 1017.5 1017.4 0.0
06/09:00am 20.7 19.5 12.9 61 4.4 NE 11 15 6 8 1017.5 1017.4 0.0
06/08:30am 19.5 19.3 13.7 69 3.3 NE 7 9 4 5 1017.5 1017.4 0.0
06/08:00am 17.9 18.0 14.0 78 2.2 N 6 7 3 4 1017.3 1017.2 0.0
06/07:30am 16.2 16.0 13.5 84 1.5 N 7 9 4 5 1017.2 1017.1 0.0
06/07:00am 15.0 14.2 13.0 88 1.1 N 9 13 5 7 1016.8 1016.7 0.0
06/06:30am 14.8 13.6 12.8 88 1.1 NW 11 15 6 8 1016.7 1016.6 0.0
06/06:00am 14.6 13.5 13.0 90 0.9 NNW 11 15 6 8 1016.3 1016.2 0.0
06/05:30am 14.7 13.6 13.2 91 0.8 N 11 15 6 8 1016.1 1016.0 0.0
06/05:00am 14.7 13.6 13.1 90 0.9 NW 11 15 6 8 1015.8 1015.7 0.0
06/04:30am 14.8 13.3 13.2 90 0.9 NW 13 15 7 8 1015.8 1015.7 0.0
06/04:00am 14.9 13.4 13.1 89 1.0 NW 13 15 7 8 1015.8 1015.7 0.0
06/03:30am 15.1 13.6 13.1 88 1.1 NW 13 13 7 7 1015.8 1015.7 0.0
06/03:00am 15.2 14.1 13.2 88 1.1 NW 11 13 6 7 1016.0 1015.9 0.0
06/02:30am 15.4 14.3 13.1 86 1.3 NW 11 11 6 6 1015.9 1015.8 0.0
06/02:00am 16.4 16.3 13.3 82 1.7 WSW 6 11 3 6 1016.2 1016.1 0.0
06/01:30am 17.2 18.2 13.3 78 2.2 CALM 0 0 0 0 1016.4 1016.3 0.0
06/01:00am 18.2 18.2 13.5 74 2.7 S 6 7 3 4 1016.6 1016.5 0.0
06/12:30am 18.5 17.9 13.6 73 2.8 SSE 9 11 5 6 1016.8 1016.7 0.0
06/12:00am 19.0 18.1 13.6 71 3.1 SSE 11 17 6 9 1016.9 1016.8 0.0
 
Date/Time
EDT
Temp
°C
App
Temp
°C
Dew
Point
Rel
Hum
%
Delta-T
°C
Wind Press
QNH
hPa
Press
MSL
hPa
Rain
since 9 am
mm
Dir
 
Spd
km/h
Gust
km/h
Spd
kts
Gust
kts
05/11:30pm 19.5 17.0 13.4 68 3.5 SE 19 28 10 15 1017.1 1017.0 0.0
05/11:00pm 19.8 17.2 13.7 68 3.5 SE 20 30 11 16 1017.3 1017.2 0.0
05/10:30pm 20.5 16.7 13.7 65 3.9 SE 26 37 14 20 1017.5 1017.4 0.0
05/10:00pm 21.1 17.8 14.0 64 4.1 SE 24 35 13 19 1017.4 1017.3 0.0
05/09:30pm 21.7 18.8 13.9 61 4.5 SE 22 33 12 18 1017.4 1017.3 0.0
05/09:00pm 22.4 19.5 14.0 59 4.9 SE 22 33 12 18 1017.0 1016.9 0.0
05/08:30pm 23.1 21.0 14.7 59 5.0 SSE 19 28 10 15 1016.7 1016.6 0.0
05/08:00pm 23.9 21.2 14.6 56 5.5 SE 22 33 12 18 1016.3 1016.2 0.0
05/07:30pm 25.0 22.1 13.9 50 6.5 SE 22 32 12 17 1016.0 1015.9 0.0
05/07:00pm 25.7 22.8 13.9 48 7.0 SE 22 37 12 20 1015.7 1015.6 0.0
05/06:30pm 26.2 22.0 12.3 42 8.0 SE 26 39 14 21 1015.7 1015.6 0.0
05/06:00pm 26.6 23.3 14.0 46 7.5 SSE 24 37 13 20 1015.8 1015.7 0.0
05/05:30pm 27.2 23.9 12.8 41 8.4 SSE 22 32 12 17 1016.0 1015.9 0.0
05/05:00pm 27.0 23.0 13.0 42 8.2 SSE 26 35 14 19 1016.1 1016.0 0.0
05/04:30pm 27.8 24.1 12.6 39 8.9 SSE 24 33 13 18 1016.4 1016.3 0.0
05/04:00pm 27.5 23.8 11.5 37 9.2 SSE 22 35 12 19 1016.6 1016.5 0.0
05/03:30pm 27.4 24.0 11.4 37 9.1 SSE 20 30 11 16 1017.1 1017.0 0.0
05/03:00pm 26.9 23.3 10.6 36 9.2 SE 20 30 11 16 1017.5 1017.4 0.0
05/02:30pm 26.4 23.2 10.1 36 9.1 SE 17 24 9 13 1017.9 1017.8 0.0
05/02:00pm 25.8 22.8 10.8 39 8.4 ESE 17 24 9 13 1018.2 1018.1 0.0
05/01:30pm 24.6 22.7 12.9 48 6.8 E 15 20 8 11 1018.7 1018.6 0.0
05/01:00pm 23.8 22.1 12.4 48 6.5 ESE 13 22 7 12 1018.9 1018.8 0.0
05/12:30pm 22.9 21.6 12.5 52 5.9 S 11 19 6 10 1019.4 1019.3 0.0
05/12:00pm 22.5 20.9 12.7 54 5.6 SSE 13 20 7 11 1019.7 1019.6 0.0
05/11:30am 22.3 21.8 12.5 53 5.6 ENE 7 13 4 7 1019.8 1019.7 0.0
05/11:00am 21.1 20.4 13.3 61 4.5 SE 9 17 5 9 1020.0 1019.9 0.0
05/10:30am 20.4 19.1 13.6 65 3.9 ESE 13 19 7 10 1020.1 1020.0 0.0
05/10:00am 19.5 18.1 13.4 68 3.5 ESE 13 17 7 9 1020.2 1020.1 0.0
05/09:30am 18.9 17.1 13.3 70 3.2 ESE 15 19 8 10 1020.1 1020.0 0.0
05/09:00am 18.2 15.9 12.9 71 3.0 SE 17 22 9 12 1020.0 1019.9 0.0
05/08:30am 17.9 16.3 12.8 72 2.9 ESE 13 20 7 11 1019.9 1019.8 0.0
05/08:00am 17.6 15.2 12.5 72 2.8 ESE 17 24 9 13 1019.7 1019.6 0.0
05/07:30am 17.6 15.2 12.5 72 2.8 ESE 17 26 9 14 1019.6 1019.5 0.0
05/07:00am 17.2 15.4 13.3 78 2.2 SE 15 20 8 11 1019.4 1019.3 0.0
05/06:30am 17.1 16.2 13.6 80 2.0 SSE 11 19 6 10 1019.0 1018.9 0.0
05/06:00am 17.5 15.9 13.8 79 2.1 SSE 15 20 8 11 1018.7 1018.6 0.0
05/05:30am 17.6 16.1 14.3 81 1.9 SSE 15 22 8 12 1018.5 1018.4 0.0
05/05:00am 17.7 16.3 14.6 82 1.8 SSE 15 20 8 11 1018.5 1018.4 0.0
05/04:30am 17.6 16.7 14.9 84 1.6 SSE 13 19 7 10 1018.5 1018.4 0.0
05/04:00am 17.8 17.0 15.1 84 1.6 SSE 13 17 7 9 1018.7 1018.6 0.0
05/03:30am 17.9 17.2 15.3 85 1.5 S 13 20 7 11 1018.8 1018.7 0.0
05/03:00am 18.0 16.9 15.3 84 1.6 SSE 15 24 8 13 1019.0 1018.9 0.0
05/02:30am 18.1 17.0 15.2 83 1.7 SSE 15 20 8 11 1019.2 1019.1 0.0
05/02:00am 18.1 16.9 15.0 82 1.8 SSE 15 22 8 12 1019.5 1019.4 0.0
05/01:30am 18.2 16.6 14.9 81 1.9 SSE 17 24 9 13 1019.8 1019.7 0.0
05/01:00am 18.2 16.9 14.7 80 2.0 SSE 15 20 8 11 1019.8 1019.7 0.0
05/12:30am 18.2 16.0 14.3 78 2.2 SSE 19 30 10 16 1019.8 1019.7 0.0
05/12:00am 18.1 17.0 14.2 78 2.2 S 13 20 7 11 1019.9 1019.8 0.0

Other Formats:

Comma delimited format used in spreadsheet applications
http://www.bom.gov.au/fwo/IDV60801/IDV60801.94865.axf

JavaScript Object Notation format (JSON) in row-major order
http://www.bom.gov.au/fwo/IDV60801/IDV60801.94865.json